sensor_id;sensor_type;location;lat;lon;timestamp;pressure;altitude;pressure_sealevel;temperature;humidity
11041;BME280;5573;49.592;8.662;2022-09-13T00:01:56;99441.41;;;14.37;100.00
11041;BME280;5573;49.592;8.662;2022-09-13T00:04:44;99433.59;;;14.32;100.00
11041;BME280;5573;49.592;8.662;2022-09-13T00:07:34;99435.25;;;14.26;100.00
11041;BME280;5573;49.592;8.662;2022-09-13T00:10:22;99430.50;;;14.26;100.00
11041;BME280;5573;49.592;8.662;2022-09-13T00:13:12;99412.31;;;14.25;100.00
11041;BME280;5573;49.592;8.662;2022-09-13T00:16:00;99400.22;;;14.15;100.00
11041;BME280;5573;49.592;8.662;2022-09-13T00:18:51;99392.66;;;14.19;100.00
11041;BME280;5573;49.592;8.662;2022-09-13T00:21:39;99390.31;;;14.18;100.00
11041;BME280;5573;49.592;8.662;2022-09-13T00:24:28;99396.72;;;14.11;100.00
11041;BME280;5573;49.592;8.662;2022-09-13T00:27:16;99406.31;;;14.03;100.00
11041;BME280;5573;49.592;8.662;2022-09-13T00:30:06;99409.53;;;13.98;100.00
11041;BME280;5573;49.592;8.662;2022-09-13T00:32:54;99400.91;;;13.92;100.00
11041;BME280;5573;49.592;8.662;2022-09-13T00:35:42;99393.09;;;13.87;100.00
11041;BME280;5573;49.592;8.662;2022-09-13T00:38:30;99390.78;;;13.82;100.00
11041;BME280;5573;49.592;8.662;2022-09-13T00:41:20;99395.97;;;13.76;100.00
11041;BME280;5573;49.592;8.662;2022-09-13T00:47:34;99386.63;;;13.67;100.00
11041;BME280;5573;49.592;8.662;2022-09-13T00:50:28;99398.13;;;13.61;100.00
11041;BME280;5573;49.592;8.662;2022-09-13T00:53:21;99396.97;;;13.59;100.00
11041;BME280;5573;49.592;8.662;2022-09-13T00:56:14;99398.19;;;13.54;100.00
11041;BME280;5573;49.592;8.662;2022-09-13T00:59:08;99395.84;;;13.53;100.00
11041;BME280;5573;49.592;8.662;2022-09-13T01:01:56;99383.25;;;13.52;100.00
11041;BME280;5573;49.592;8.662;2022-09-13T01:04:45;99385.63;;;13.50;100.00
11041;BME280;5573;49.592;8.662;2022-09-13T01:07:33;99383.31;;;13.45;100.00
11041;BME280;5573;49.592;8.662;2022-09-13T01:10:21;99396.31;;;13.48;100.00
11041;BME280;5573;49.592;8.662;2022-09-13T01:13:12;99408.09;;;13.52;100.00
11041;BME280;5573;49.592;8.662;2022-09-13T01:16:04;99392.75;;;13.47;100.00
11041;BME280;5573;49.592;8.662;2022-09-13T01:18:52;99380.09;;;13.50;100.00
11041;BME280;5573;49.592;8.662;2022-09-13T01:28:40;99369.66;;;13.65;100.00
11041;BME280;5573;49.592;8.662;2022-09-13T01:31:39;99380.69;;;13.68;100.00
11041;BME280;5573;49.592;8.662;2022-09-13T01:34:39;99386.22;;;13.68;100.00
11041;BME280;5573;49.592;8.662;2022-09-13T01:37:45;99391.75;;;13.68;100.00
11041;BME280;5573;49.592;8.662;2022-09-13T01:40:50;99395.31;;;13.65;100.00
11041;BME280;5573;49.592;8.662;2022-09-13T01:43:51;99391.03;;;13.60;100.00
11041;BME280;5573;49.592;8.662;2022-09-13T01:46:46;99373.66;;;13.60;100.00
11041;BME280;5573;49.592;8.662;2022-09-13T01:49:45;99380.78;;;13.57;100.00
11041;BME280;5573;49.592;8.662;2022-09-13T01:52:41;99391.94;;;13.50;100.00
11041;BME280;5573;49.592;8.662;2022-09-13T01:55:36;99394.41;;;13.41;100.00
11041;BME280;5573;49.592;8.662;2022-09-13T01:58:32;99396.72;;;13.46;100.00
11041;BME280;5573;49.592;8.662;2022-09-13T02:01:27;99388.00;;;13.48;100.00
11041;BME280;5573;49.592;8.662;2022-09-13T02:04:22;99384.91;;;13.42;100.00
11041;BME280;5573;49.592;8.662;2022-09-13T02:07:16;99377.03;;;13.40;100.00
11041;BME280;5573;49.592;8.662;2022-09-13T02:10:07;99378.63;;;13.38;100.00
11041;BME280;5573;49.592;8.662;2022-09-13T02:12:57;99373.19;;;13.27;100.00
11041;BME280;5573;49.592;8.662;2022-09-13T02:15:47;99381.88;;;13.26;100.00
11041;BME280;5573;49.592;8.662;2022-09-13T02:18:39;99383.09;;;13.25;100.00
11041;BME280;5573;49.592;8.662;2022-09-13T02:21:31;99383.47;;;13.27;100.00
11041;BME280;5573;49.592;8.662;2022-09-13T02:24:28;99397.31;;;13.23;100.00
11041;BME280;5573;49.592;8.662;2022-09-13T02:27:21;99399.69;;;13.21;100.00
11041;BME280;5573;49.592;8.662;2022-09-13T02:30:12;99413.44;;;13.28;100.00
11041;BME280;5573;49.592;8.662;2022-09-13T02:33:03;99415.47;;;13.24;100.00
11041;BME280;5573;49.592;8.662;2022-09-13T02:35:59;99416.22;;;13.28;100.00
11041;BME280;5573;49.592;8.662;2022-09-13T02:38:52;99421.75;;;13.25;100.00
11041;BME280;5573;49.592;8.662;2022-09-13T02:41:50;99426.91;;;13.22;100.00
11041;BME280;5573;49.592;8.662;2022-09-13T02:44:40;99419.91;;;13.11;100.00
11041;BME280;5573;49.592;8.662;2022-09-13T02:47:40;99438.44;;;13.14;100.00
11041;BME280;5573;49.592;8.662;2022-09-13T02:50:36;99438.09;;;13.08;100.00
11041;BME280;5573;49.592;8.662;2022-09-13T02:53:37;99436.16;;;13.01;100.00
11041;BME280;5573;49.592;8.662;2022-09-13T02:56:33;99419.25;;;12.96;100.00
11041;BME280;5573;49.592;8.662;2022-09-13T02:59:24;99420.03;;;12.96;100.00
11041;BME280;5573;49.592;8.662;2022-09-13T03:02:14;99423.16;;;12.98;100.00
11041;BME280;5573;49.592;8.662;2022-09-13T03:05:03;99416.50;;;12.96;100.00
11041;BME280;5573;49.592;8.662;2022-09-13T03:07:52;99376.88;;;12.68;100.00
11041;BME280;5573;49.592;8.662;2022-09-13T03:10:47;99407.34;;;13.06;100.00
11041;BME280;5573;49.592;8.662;2022-09-13T03:14:06;99408.91;;;13.07;100.00
11041;BME280;5573;49.592;8.662;2022-09-13T03:17:10;99414.44;;;13.07;100.00
11041;BME280;5573;49.592;8.662;2022-09-13T03:20:08;99419.53;;;13.09;100.00
11041;BME280;5573;49.592;8.662;2022-09-13T03:23:07;99420.72;;;13.11;100.00
11041;BME280;5573;49.592;8.662;2022-09-13T03:26:19;99403.28;;;13.18;100.00
11041;BME280;5573;49.592;8.662;2022-09-13T03:29:23;99386.34;;;13.16;100.00
11041;BME280;5573;49.592;8.662;2022-09-13T03:32:19;99370.19;;;13.14;100.00
11041;BME280;5573;49.592;8.662;2022-09-13T03:35:17;99366.16;;;13.22;100.00
11041;BME280;5573;49.592;8.662;2022-09-13T03:38:12;99371.69;;;13.22;100.00
11041;BME280;5573;49.592;8.662;2022-09-13T03:41:06;99337.94;;;13.00;100.00
11041;BME280;5573;49.592;8.662;2022-09-13T03:43:57;99322.22;;;12.97;100.00
11041;BME280;5573;49.592;8.662;2022-09-13T03:46:49;99327.91;;;13.17;100.00
11041;BME280;5573;49.592;8.662;2022-09-13T03:49:39;99359.41;;;13.61;100.00
11041;BME280;5573;49.592;8.662;2022-09-13T03:52:27;99360.03;;;13.76;100.00
11041;BME280;5573;49.592;8.662;2022-09-13T03:55:17;99374.56;;;13.84;100.00
11041;BME280;5573;49.592;8.662;2022-09-13T03:58:05;99368.22;;;13.87;100.00
11041;BME280;5573;49.592;8.662;2022-09-13T04:00:53;99369.72;;;13.92;100.00
11041;BME280;5573;49.592;8.662;2022-09-13T04:03:42;99368.50;;;13.93;100.00
11041;BME280;5573;49.592;8.662;2022-09-13T04:06:30;99372.91;;;13.90;100.00
11041;BME280;5573;49.592;8.662;2022-09-13T04:09:18;99365.78;;;13.89;100.00
11041;BME280;5573;49.592;8.662;2022-09-13T04:12:06;99369.75;;;13.88;100.00
11041;BME280;5573;49.592;8.662;2022-09-13T04:14:55;99367.03;;;13.85;100.00
11041;BME280;5573;49.592;8.662;2022-09-13T04:17:43;99372.63;;;13.81;100.00
11041;BME280;5573;49.592;8.662;2022-09-13T04:20:32;99378.94;;;13.81;100.00
11041;BME280;5573;49.592;8.662;2022-09-13T04:23:21;99371.78;;;13.84;100.00
11041;BME280;5573;49.592;8.662;2022-09-13T04:26:09;99378.06;;;13.88;100.00
11041;BME280;5573;49.592;8.662;2022-09-13T04:28:57;99376.84;;;13.89;100.00
11041;BME280;5573;49.592;8.662;2022-09-13T04:31:45;99370.53;;;13.89;100.00
11041;BME280;5573;49.592;8.662;2022-09-13T04:34:33;99366.97;;;13.92;100.00
11041;BME280;5573;49.592;8.662;2022-09-13T04:37:23;99364.56;;;13.94;100.00
11041;BME280;5573;49.592;8.662;2022-09-13T04:40:12;99363.75;;;13.93;100.00
11041;BME280;5573;49.592;8.662;2022-09-13T04:43:00;99364.97;;;13.92;100.00
11041;BME280;5573;49.592;8.662;2022-09-13T04:45:49;99354.06;;;13.81;100.00
11041;BME280;5573;49.592;8.662;2022-09-13T04:48:37;99374.00;;;13.96;100.00
11041;BME280;5573;49.592;8.662;2022-09-13T04:51:25;99378.69;;;13.99;100.00
11041;BME280;5573;49.592;8.662;2022-09-13T04:54:14;99363.03;;;13.89;100.00
11041;BME280;5573;49.592;8.662;2022-09-13T04:57:02;99373.16;;;13.99;100.00
11041;BME280;5573;49.592;8.662;2022-09-13T04:59:50;99375.31;;;13.85;100.00
11041;BME280;5573;49.592;8.662;2022-09-13T05:02:38;99370.59;;;13.85;100.00
11041;BME280;5573;49.592;8.662;2022-09-13T05:05:26;99382.06;;;13.83;100.00
11041;BME280;5573;49.592;8.662;2022-09-13T05:08:15;99389.97;;;13.85;100.00
11041;BME280;5573;49.592;8.662;2022-09-13T05:11:06;99393.91;;;13.84;100.00
11041;BME280;5573;49.592;8.662;2022-09-13T05:13:55;99397.63;;;13.70;100.00
11041;BME280;5573;49.592;8.662;2022-09-13T05:16:44;99397.31;;;13.65;100.00
11041;BME280;5573;49.592;8.662;2022-09-13T05:19:32;99396.47;;;13.68;100.00
11041;BME280;5573;49.592;8.662;2022-09-13T05:22:20;99398.72;;;13.76;100.00
11041;BME280;5573;49.592;8.662;2022-09-13T05:25:08;99401.84;;;13.78;100.00
11041;BME280;5573;49.592;8.662;2022-09-13T05:27:58;99404.19;;;13.83;100.00
11041;BME280;5573;49.592;8.662;2022-09-13T05:30:53;99393.81;;;13.91;100.00
11041;BME280;5573;49.592;8.662;2022-09-13T05:33:43;99409.94;;;13.96;100.00
11041;BME280;5573;49.592;8.662;2022-09-13T05:36:31;99413.81;;;14.02;100.00
11041;BME280;5573;49.592;8.662;2022-09-13T05:39:19;99420.03;;;14.10;100.00
11041;BME280;5573;49.592;8.662;2022-09-13T05:42:28;99423.22;;;14.09;100.00
11041;BME280;5573;49.592;8.662;2022-09-13T05:45:17;99417.97;;;14.18;100.00
11041;BME280;5573;49.592;8.662;2022-09-13T05:48:05;99420.91;;;14.34;100.00
11041;BME280;5573;49.592;8.662;2022-09-13T05:50:53;99421.59;;;14.42;100.00
11041;BME280;5573;49.592;8.662;2022-09-13T05:53:46;99404.03;;;14.56;100.00
11041;BME280;5573;49.592;8.662;2022-09-13T05:56:34;99398.38;;;14.63;100.00
11041;BME280;5573;49.592;8.662;2022-09-13T05:59:22;99402.22;;;14.69;100.00
11041;BME280;5573;49.592;8.662;2022-09-13T06:02:11;99411.69;;;14.72;100.00
11041;BME280;5573;49.592;8.662;2022-09-13T06:04:59;99414.03;;;14.73;100.00
11041;BME280;5573;49.592;8.662;2022-09-13T06:07:47;99413.16;;;14.80;100.00
11041;BME280;5573;49.592;8.662;2022-09-13T06:10:35;99415.38;;;14.89;100.00
11041;BME280;5573;49.592;8.662;2022-09-13T06:13:24;99404.91;;;15.00;100.00
11041;BME280;5573;49.592;8.662;2022-09-13T06:16:13;99395.63;;;15.10;100.00
11041;BME280;5573;49.592;8.662;2022-09-13T06:19:03;99405.56;;;15.31;100.00
11041;BME280;5573;49.592;8.662;2022-09-13T06:21:51;99408.91;;;15.42;100.00
11041;BME280;5573;49.592;8.662;2022-09-13T06:24:39;99397.97;;;15.55;100.00
11041;BME280;5573;49.592;8.662;2022-09-13T06:27:28;99398.41;;;15.54;100.00
11041;BME280;5573;49.592;8.662;2022-09-13T06:30:16;99406.78;;;15.70;100.00
11041;BME280;5573;49.592;8.662;2022-09-13T06:33:05;99390.94;;;15.71;100.00
11041;BME280;5573;49.592;8.662;2022-09-13T06:35:54;99403.81;;;15.81;100.00
11041;BME280;5573;49.592;8.662;2022-09-13T06:38:47;99383.00;;;15.73;100.00
11041;BME280;5573;49.592;8.662;2022-09-13T06:41:37;99407.59;;;15.91;100.00
11041;BME280;5573;49.592;8.662;2022-09-13T06:44:25;99412.72;;;15.92;100.00
11041;BME280;5573;49.592;8.662;2022-09-13T06:47:13;99402.25;;;16.00;100.00
11041;BME280;5573;49.592;8.662;2022-09-13T06:50:01;99396.22;;;16.05;100.00
11041;BME280;5573;49.592;8.662;2022-09-13T06:52:50;99397.97;;;16.15;100.00
11041;BME280;5573;49.592;8.662;2022-09-13T06:55:38;99397.38;;;16.24;100.00
11041;BME280;5573;49.592;8.662;2022-09-13T06:58:27;99406.75;;;16.30;100.00
11041;BME280;5573;49.592;8.662;2022-09-13T07:01:16;99412.00;;;16.44;100.00
11041;BME280;5573;49.592;8.662;2022-09-13T07:04:07;99425.28;;;16.53;100.00
11041;BME280;5573;49.592;8.662;2022-09-13T07:06:55;99424.59;;;16.65;100.00
11041;BME280;5573;49.592;8.662;2022-09-13T07:09:44;99412.75;;;16.81;100.00
11041;BME280;5573;49.592;8.662;2022-09-13T07:12:32;99426.22;;;16.99;100.00
11041;BME280;5573;49.592;8.662;2022-09-13T07:15:20;99428.25;;;17.12;100.00
11041;BME280;5573;49.592;8.662;2022-09-13T07:18:08;99423.91;;;17.27;100.00
11041;BME280;5573;49.592;8.662;2022-09-13T07:21:00;99433.44;;;17.42;100.00
11041;BME280;5573;49.592;8.662;2022-09-13T07:23:50;99437.59;;;17.51;100.00
11041;BME280;5573;49.592;8.662;2022-09-13T07:26:40;99434.97;;;17.60;100.00
11041;BME280;5573;49.592;8.662;2022-09-13T07:29:28;99445.91;;;17.67;100.00
11041;BME280;5573;49.592;8.662;2022-09-13T07:32:16;99440.13;;;17.74;100.00
11041;BME280;5573;49.592;8.662;2022-09-13T07:35:05;99442.66;;;17.85;100.00
11041;BME280;5573;49.592;8.662;2022-09-13T07:37:53;99457.91;;;17.93;100.00
11041;BME280;5573;49.592;8.662;2022-09-13T07:40:41;99452.69;;;17.95;100.00
11041;BME280;5573;49.592;8.662;2022-09-13T07:43:31;99446.78;;;17.93;100.00
11041;BME280;5573;49.592;8.662;2022-09-13T07:46:20;99454.41;;;18.05;100.00
11041;BME280;5573;49.592;8.662;2022-09-13T07:49:10;99447.75;;;18.16;100.00
11041;BME280;5573;49.592;8.662;2022-09-13T07:51:58;99443.88;;;18.26;100.00
11041;BME280;5573;49.592;8.662;2022-09-13T07:54:46;99441.09;;;18.26;100.00
11041;BME280;5573;49.592;8.662;2022-09-13T07:57:34;99433.50;;;18.26;100.00
11041;BME280;5573;49.592;8.662;2022-09-13T08:00:23;99426.59;;;18.31;100.00
11041;BME280;5573;49.592;8.662;2022-09-13T08:03:11;99420.25;;;18.18;100.00
11041;BME280;5573;49.592;8.662;2022-09-13T08:05:59;99411.56;;;18.16;100.00
11041;BME280;5573;49.592;8.662;2022-09-13T08:08:48;99404.97;;;18.10;100.00
11041;BME280;5573;49.592;8.662;2022-09-13T08:11:38;99391.59;;;18.04;100.00
11041;BME280;5573;49.592;8.662;2022-09-13T08:14:26;99403.16;;;17.90;100.00
11041;BME280;5573;49.592;8.662;2022-09-13T08:17:15;99436.13;;;18.04;100.00
11041;BME280;5573;49.592;8.662;2022-09-13T08:20:05;99437.59;;;18.09;100.00
11041;BME280;5573;49.592;8.662;2022-09-13T08:22:56;99426.34;;;18.13;100.00
11041;BME280;5573;49.592;8.662;2022-09-13T08:25:44;99421.47;;;18.42;100.00
11041;BME280;5573;49.592;8.662;2022-09-13T08:28:33;99401.22;;;18.42;100.00
11041;BME280;5573;49.592;8.662;2022-09-13T08:31:21;99402.66;;;18.59;100.00
11041;BME280;5573;49.592;8.662;2022-09-13T08:34:12;99392.97;;;18.64;100.00
11041;BME280;5573;49.592;8.662;2022-09-13T08:37:00;99382.72;;;18.86;100.00
11041;BME280;5573;49.592;8.662;2022-09-13T08:39:48;99378.59;;;18.78;100.00
11041;BME280;5573;49.592;8.662;2022-09-13T08:42:48;99367.31;;;18.95;100.00
11041;BME280;5573;49.592;8.662;2022-09-13T08:45:38;99375.16;;;18.87;100.00
11041;BME280;5573;49.592;8.662;2022-09-13T08:48:31;99387.25;;;19.06;100.00
11041;BME280;5573;49.592;8.662;2022-09-13T08:51:27;99390.03;;;19.41;98.46
11041;BME280;5573;49.592;8.662;2022-09-13T08:54:18;99399.09;;;19.89;94.73
11041;BME280;5573;49.592;8.662;2022-09-13T08:57:11;99397.53;;;20.19;95.73
11041;BME280;5573;49.592;8.662;2022-09-13T09:00:11;99363.47;;;20.02;93.37
11041;BME280;5573;49.592;8.662;2022-09-13T09:03:15;99413.44;;;20.63;90.49
11041;BME280;5573;49.592;8.662;2022-09-13T09:06:13;99421.84;;;20.72;90.13
11041;BME280;5573;49.592;8.662;2022-09-13T09:09:05;99403.53;;;20.62;90.30
11041;BME280;5573;49.592;8.662;2022-09-13T09:11:59;99416.44;;;20.87;83.50
11041;BME280;5573;49.592;8.662;2022-09-13T09:14:56;99431.81;;;20.82;84.28
11041;BME280;5573;49.592;8.662;2022-09-13T09:17:50;99422.34;;;20.80;85.02
11041;BME280;5573;49.592;8.662;2022-09-13T09:20:42;99422.53;;;21.04;79.74
11041;BME280;5573;49.592;8.662;2022-09-13T09:23:34;99426.00;;;21.26;80.02
11041;BME280;5573;49.592;8.662;2022-09-13T09:26:28;99410.50;;;21.44;79.93
11041;BME280;5573;49.592;8.662;2022-09-13T09:29:18;99420.47;;;21.63;74.59
11041;BME280;5573;49.592;8.662;2022-09-13T09:32:20;99400.41;;;21.46;76.83
11041;BME280;5573;49.592;8.662;2022-09-13T09:35:17;99368.84;;;21.27;79.28
11041;BME280;5573;49.592;8.662;2022-09-13T09:38:30;99407.53;;;21.38;81.31
11041;BME280;5573;49.592;8.662;2022-09-13T09:41:26;99423.25;;;21.45;75.57
11041;BME280;5573;49.592;8.662;2022-09-13T09:44:17;99424.47;;;21.25;80.93
11041;BME280;5573;49.592;8.662;2022-09-13T09:47:11;99421.03;;;21.30;81.54
11041;BME280;5573;49.592;8.662;2022-09-13T09:50:06;99426.69;;;21.49;82.07
11041;BME280;5573;49.592;8.662;2022-09-13T09:52:58;99437.25;;;21.72;80.45
11041;BME280;5573;49.592;8.662;2022-09-13T09:55:53;99437.22;;;21.82;76.98
11041;BME280;5573;49.592;8.662;2022-09-13T09:58:47;99440.97;;;21.97;76.46
11041;BME280;5573;49.592;8.662;2022-09-13T10:01:36;99437.38;;;21.97;75.00
11041;BME280;5573;49.592;8.662;2022-09-13T10:04:26;99431.63;;;21.91;75.03
11041;BME280;5573;49.592;8.662;2022-09-13T10:07:23;99426.97;;;21.88;76.13
11041;BME280;5573;49.592;8.662;2022-09-13T10:10:21;99417.38;;;21.61;77.93
11041;BME280;5573;49.592;8.662;2022-09-13T10:13:14;99410.50;;;21.71;80.14
11041;BME280;5573;49.592;8.662;2022-09-13T10:16:06;99410.34;;;21.84;84.05
11041;BME280;5573;49.592;8.662;2022-09-13T10:19:24;99405.78;;;22.05;82.67
11041;BME280;5573;49.592;8.662;2022-09-13T10:22:12;99397.44;;;22.39;79.34
11041;BME280;5573;49.592;8.662;2022-09-13T10:25:13;99380.16;;;22.73;73.66
11041;BME280;5573;49.592;8.662;2022-09-13T10:28:03;99399.88;;;23.12;72.93
11041;BME280;5573;49.592;8.662;2022-09-13T10:30:56;99412.97;;;23.16;71.25
11041;BME280;5573;49.592;8.662;2022-09-13T10:33:55;99421.94;;;23.44;72.00
11041;BME280;5573;49.592;8.662;2022-09-13T10:36:51;99427.13;;;23.60;68.00
11041;BME280;5573;49.592;8.662;2022-09-13T10:39:51;99427.00;;;23.54;66.35
11041;BME280;5573;49.592;8.662;2022-09-13T10:42:49;99430.09;;;23.57;67.29
11041;BME280;5573;49.592;8.662;2022-09-13T10:45:40;99431.50;;;23.37;69.85
11041;BME280;5573;49.592;8.662;2022-09-13T10:48:29;99441.16;;;23.21;70.45
11041;BME280;5573;49.592;8.662;2022-09-13T10:51:30;99456.94;;;23.33;72.77
11041;BME280;5573;49.592;8.662;2022-09-13T10:54:21;99447.28;;;23.34;72.03
11041;BME280;5573;49.592;8.662;2022-09-13T10:57:28;99453.25;;;23.27;74.36
11041;BME280;5573;49.592;8.662;2022-09-13T11:00:19;99444.75;;;23.12;73.14
11041;BME280;5573;49.592;8.662;2022-09-13T11:03:24;99432.16;;;22.74;73.14
11041;BME280;5573;49.592;8.662;2022-09-13T11:06:21;99436.31;;;22.55;74.41
11041;BME280;5573;49.592;8.662;2022-09-13T11:09:15;99435.75;;;22.32;78.64
11041;BME280;5573;49.592;8.662;2022-09-13T11:12:08;99443.69;;;22.43;80.42
11041;BME280;5573;49.592;8.662;2022-09-13T11:15:06;99445.31;;;22.59;75.10
11041;BME280;5573;49.592;8.662;2022-09-13T11:18:12;99438.28;;;22.73;78.76
11041;BME280;5573;49.592;8.662;2022-09-13T11:21:12;99431.75;;;22.67;80.84
11041;BME280;5573;49.592;8.662;2022-09-13T11:24:21;99425.72;;;22.59;85.05
11041;BME280;5573;49.592;8.662;2022-09-13T11:27:23;99417.66;;;22.43;86.91
11041;BME280;5573;49.592;8.662;2022-09-13T11:30:18;99414.63;;;22.22;82.78
11041;BME280;5573;49.592;8.662;2022-09-13T11:33:16;99415.56;;;22.10;86.54
11041;BME280;5573;49.592;8.662;2022-09-13T11:36:33;99349.25;;;21.55;87.71
11041;BME280;5573;49.592;8.662;2022-09-13T11:39:31;99410.97;;;21.88;88.84
11041;BME280;5573;49.592;8.662;2022-09-13T11:42:28;99402.72;;;21.66;91.29
11041;BME280;5573;49.592;8.662;2022-09-13T11:45:23;99403.34;;;21.52;89.42
11041;BME280;5573;49.592;8.662;2022-09-13T11:48:33;99401.16;;;21.28;89.92
11041;BME280;5573;49.592;8.662;2022-09-13T11:51:32;99395.25;;;21.17;99.42
11041;BME280;5573;49.592;8.662;2022-09-13T11:54:35;99386.53;;;21.24;100.00
11041;BME280;5573;49.592;8.662;2022-09-13T11:57:30;99382.94;;;21.05;100.00
11041;BME280;5573;49.592;8.662;2022-09-13T12:00:21;99368.19;;;21.05;100.00
11041;BME280;5573;49.592;8.662;2022-09-13T12:03:14;99355.56;;;20.82;100.00
11041;BME280;5573;49.592;8.662;2022-09-13T12:06:08;99350.28;;;20.75;100.00
11041;BME280;5573;49.592;8.662;2022-09-13T12:09:01;99345.16;;;20.73;100.00
11041;BME280;5573;49.592;8.662;2022-09-13T12:11:54;99346.09;;;20.79;100.00
11041;BME280;5573;49.592;8.662;2022-09-13T12:14:48;99346.09;;;20.79;100.00
11041;BME280;5573;49.592;8.662;2022-09-13T12:17:40;99349.22;;;20.90;100.00
11041;BME280;5573;49.592;8.662;2022-09-13T12:20:33;99348.75;;;20.92;100.00
11041;BME280;5573;49.592;8.662;2022-09-13T12:23:25;99336.78;;;20.82;100.00
11041;BME280;5573;49.592;8.662;2022-09-13T12:26:19;99336.00;;;20.73;100.00
11041;BME280;5573;49.592;8.662;2022-09-13T12:29:14;99326.22;;;20.77;100.00
11041;BME280;5573;49.592;8.662;2022-09-13T12:32:06;99297.63;;;20.64;100.00
11041;BME280;5573;49.592;8.662;2022-09-13T12:34:57;99322.16;;;20.69;100.00
11041;BME280;5573;49.592;8.662;2022-09-13T12:38:10;99316.59;;;20.78;100.00
11041;BME280;5573;49.592;8.662;2022-09-13T12:41:24;99306.66;;;20.86;100.00
11041;BME280;5573;49.592;8.662;2022-09-13T12:44:41;99311.03;;;21.15;100.00
11041;BME280;5573;49.592;8.662;2022-09-13T12:47:48;99297.66;;;21.28;100.00
11041;BME280;5573;49.592;8.662;2022-09-13T12:50:45;99292.34;;;21.40;100.00
11041;BME280;5573;49.592;8.662;2022-09-13T12:54:10;99297.47;;;21.60;100.00
11041;BME280;5573;49.592;8.662;2022-09-13T12:57:12;99282.19;;;21.79;100.00
11041;BME280;5573;49.592;8.662;2022-09-13T13:00:18;99301.56;;;22.01;100.00
11041;BME280;5573;49.592;8.662;2022-09-13T13:03:12;99304.56;;;22.31;100.00
11041;BME280;5573;49.592;8.662;2022-09-13T13:06:09;99297.22;;;22.58;100.00
11041;BME280;5573;49.592;8.662;2022-09-13T13:09:04;99294.50;;;22.72;100.00
11041;BME280;5573;49.592;8.662;2022-09-13T13:11:53;99288.84;;;22.82;100.00
11041;BME280;5573;49.592;8.662;2022-09-13T13:14:46;99286.91;;;23.12;100.00
11041;BME280;5573;49.592;8.662;2022-09-13T13:17:48;99301.72;;;23.27;100.00
11041;BME280;5573;49.592;8.662;2022-09-13T13:20:43;99301.75;;;23.57;100.00
11041;BME280;5573;49.592;8.662;2022-09-13T13:23:32;99304.69;;;23.78;90.29
11041;BME280;5573;49.592;8.662;2022-09-13T13:26:43;99304.56;;;24.02;86.27
11041;BME280;5573;49.592;8.662;2022-09-13T13:29:32;99303.50;;;24.49;72.24
11041;BME280;5573;49.592;8.662;2022-09-13T13:32:20;99300.91;;;24.87;69.78
11041;BME280;5573;49.592;8.662;2022-09-13T13:35:29;99290.41;;;25.08;70.42
11041;BME280;5573;49.592;8.662;2022-09-13T13:38:40;99286.78;;;25.22;69.69
11041;BME280;5573;49.592;8.662;2022-09-13T13:41:50;99272.59;;;25.16;69.81
11041;BME280;5573;49.592;8.662;2022-09-13T13:48:13;99279.34;;;25.51;65.90
11041;BME280;5573;49.592;8.662;2022-09-13T13:51:33;99273.22;;;25.52;65.28
11041;BME280;5573;49.592;8.662;2022-09-13T13:54:29;99210.53;;;25.00;66.07
11041;BME280;5573;49.592;8.662;2022-09-13T13:57:21;99261.16;;;25.20;66.43
11041;BME280;5573;49.592;8.662;2022-09-13T14:00:13;99267.97;;;25.13;67.89
11041;BME280;5573;49.592;8.662;2022-09-13T14:03:13;99241.72;;;24.75;69.83
11041;BME280;5573;49.592;8.662;2022-09-13T14:06:10;99261.47;;;24.81;68.92
11041;BME280;5573;49.592;8.662;2022-09-13T14:09:18;99256.44;;;24.65;75.80
11041;BME280;5573;49.592;8.662;2022-09-13T14:12:27;99251.28;;;24.63;77.97
11041;BME280;5573;49.592;8.662;2022-09-13T14:15:30;99245.88;;;24.60;72.14
11041;BME280;5573;49.592;8.662;2022-09-13T14:18:40;99245.09;;;24.59;70.65
11041;BME280;5573;49.592;8.662;2022-09-13T14:21:31;99231.59;;;24.63;73.71
11041;BME280;5573;49.592;8.662;2022-09-13T14:24:22;99237.72;;;24.62;73.99
11041;BME280;5573;49.592;8.662;2022-09-13T14:27:16;99226.91;;;24.54;81.89
11041;BME280;5573;49.592;8.662;2022-09-13T14:30:17;99224.78;;;24.49;85.67
11041;BME280;5573;49.592;8.662;2022-09-13T14:33:05;99226.56;;;24.32;92.20
11041;BME280;5573;49.592;8.662;2022-09-13T14:35:59;99231.03;;;24.03;93.49
11041;BME280;5573;49.592;8.662;2022-09-13T14:38:50;99230.91;;;23.77;97.10
11041;BME280;5573;49.592;8.662;2022-09-13T14:41:42;99215.50;;;23.58;100.00
11041;BME280;5573;49.592;8.662;2022-09-13T14:44:30;99215.00;;;23.44;100.00
11041;BME280;5573;49.592;8.662;2022-09-13T14:47:23;99216.28;;;23.28;100.00
11041;BME280;5573;49.592;8.662;2022-09-13T14:50:15;99213.19;;;23.11;100.00
11041;BME280;5573;49.592;8.662;2022-09-13T14:53:06;99210.03;;;22.80;100.00
11041;BME280;5573;49.592;8.662;2022-09-13T14:55:57;99208.94;;;22.62;100.00
11041;BME280;5573;49.592;8.662;2022-09-13T14:58:49;99205.03;;;22.60;100.00
11041;BME280;5573;49.592;8.662;2022-09-13T15:01:39;99187.44;;;22.59;100.00
11041;BME280;5573;49.592;8.662;2022-09-13T15:04:27;99190.28;;;22.74;100.00
11041;BME280;5573;49.592;8.662;2022-09-13T15:07:21;99179.38;;;22.76;100.00
11041;BME280;5573;49.592;8.662;2022-09-13T15:10:21;99173.69;;;22.85;100.00
11041;BME280;5573;49.592;8.662;2022-09-13T15:13:09;99133.34;;;22.68;100.00
11041;BME280;5573;49.592;8.662;2022-09-13T15:15:59;99157.94;;;22.88;100.00
11041;BME280;5573;49.592;8.662;2022-09-13T15:18:47;99156.00;;;22.79;100.00
11041;BME280;5573;49.592;8.662;2022-09-13T15:21:35;99163.53;;;22.73;100.00
11041;BME280;5573;49.592;8.662;2022-09-13T15:24:26;99154.00;;;22.70;100.00
11041;BME280;5573;49.592;8.662;2022-09-13T15:27:25;99122.41;;;22.55;100.00
11041;BME280;5573;49.592;8.662;2022-09-13T15:30:23;99149.22;;;22.86;100.00
11041;BME280;5573;49.592;8.662;2022-09-13T15:33:27;99150.38;;;22.79;100.00
11041;BME280;5573;49.592;8.662;2022-09-13T15:36:27;99144.47;;;22.77;100.00